Time;durP1;ratioP1;P1;durP2;ratioP2;P2;SDS_P1;SDS_P2;PMS_P1;PMS_P2;Temp;Humidity;BMP_temperature;BMP_pressure;BME280_temperature;BME280_humidity;BME280_pressure;Samples;Min_cycle;Max_cycle;Signal;HPM_P1;HPM_P2
2022/07/11 00:02:23;;;;;;;4.35;1.17;;;;;;;;;;6131205;23;20017;-57
2022/07/11 00:04:49;;;;;;;1.40;1.30;;;;;;;;;;6146623;23;20017;-55
2022/07/11 00:07:16;;;;;;;4.18;1.23;;;;;;;;;;6107747;23;20022;-57
2022/07/11 00:09:43;;;;;;;1.98;1.20;;;;;;;;;;6144901;23;20017;-57
2022/07/11 00:12:11;;;;;;;4.43;1.13;;;;;;;;;;6138321;23;20044;-57
2022/07/11 00:14:39;;;;;;;1.20;0.85;;;;;;;;;;6144207;23;20037;-56
2022/07/11 00:17:06;;;;;;;1.50;1.35;;;;;;;;;;6139693;23;20448;-57
2022/07/11 00:19:33;;;;;;;1.48;1.15;;;;;;;;;;6145254;23;20013;-56
2022/07/11 00:21:59;;;;;;;1.20;1.10;;;;;;;;;;6139553;23;20053;-57
2022/07/11 00:24:26;;;;;;;1.58;1.35;;;;;;;;;;6140568;23;20021;-54
2022/07/11 00:26:53;;;;;;;1.10;0.80;;;;;;;;;;6137780;23;20100;-57
2022/07/11 00:29:21;;;;;;;1.60;1.10;;;;;;;;;;6132303;23;20325;-56
2022/07/11 00:31:47;;;;;;;1.30;1.20;;;;;;;;;;6141955;23;20017;-57
2022/07/11 00:34:14;;;;;;;2.17;1.20;;;;;;;;;;6136740;23;20032;-55
2022/07/11 00:36:41;;;;;;;1.38;1.27;;;;;;;;;;6145818;23;20040;-55
2022/07/11 00:39:07;;;;;;;2.58;1.17;;;;;;;;;;6134456;23;20072;-58
2022/07/11 00:41:34;;;;;;;1.27;1.05;;;;;;;;;;6140109;23;20017;-56
2022/07/11 00:44:01;;;;;;;1.23;0.93;;;;;;;;;;6139205;23;20033;-56
2022/07/11 00:46:30;;;;;;;1.52;1.35;;;;;;;;;;6145890;23;20533;-55
2022/07/11 00:48:57;;;;;;;0.90;0.90;;;;;;;;;;6132283;23;20041;-58
2022/07/11 00:51:24;;;;;;;1.45;1.23;;;;;;;;;;6146786;23;20017;-57
2022/07/11 00:53:52;;;;;;;2.80;1.17;;;;;;;;;;6134116;23;20436;-56
2022/07/11 00:56:20;;;;;;;2.35;1.20;;;;;;;;;;6141031;23;20041;-56
2022/07/11 00:58:47;;;;;;;3.30;1.20;;;;;;;;;;6107373;23;20344;-57
2022/07/11 01:01:13;;;;;;;1.10;1.10;;;;;;;;;;6144615;23;20017;-55
2022/07/11 01:03:41;;;;;;;1.38;1.27;;;;;;;;;;6129904;23;20044;-56
2022/07/11 01:06:08;;;;;;;0.68;0.68;;;;;;;;;;6144744;23;20130;-54
2022/07/11 01:08:35;;;;;;;1.00;0.90;;;;;;;;;;6138226;23;20081;-54
2022/07/11 01:11:02;;;;;;;2.30;1.20;;;;;;;;;;6147250;23;20018;-55
2022/07/11 01:13:30;;;;;;;1.92;1.58;;;;;;;;;;6137874;23;20484;-57
2022/07/11 01:16:12;;;;;;;1.20;1.00;;;;;;;;;;6145810;23;20068;-57
2022/07/11 01:18:41;;;;;;;4.93;1.30;;;;;;;;;;6138455;23;20574;-57
2022/07/11 01:21:10;;;;;;;1.70;1.30;;;;;;;;;;6120161;23;20021;-57
2022/07/11 01:23:38;;;;;;;2.15;1.48;;;;;;;;;;6138385;23;20076;-54
2022/07/11 01:26:05;;;;;;;1.58;1.10;;;;;;;;;;6130157;23;20032;-54
2022/07/11 01:28:31;;;;;;;1.38;1.25;;;;;;;;;;6146534;23;20080;-55
2022/07/11 01:30:58;;;;;;;1.90;1.33;;;;;;;;;;6135079;23;20021;-56
2022/07/11 01:33:25;;;;;;;2.00;1.25;;;;;;;;;;6142026;23;20036;-57
2022/07/11 01:35:51;;;;;;;2.53;1.40;;;;;;;;;;6147304;23;20013;-55
2022/07/11 01:38:18;;;;;;;2.75;1.30;;;;;;;;;;6130982;23;20018;-54
2022/07/11 01:40:46;;;;;;;1.58;1.30;;;;;;;;;;6146669;23;20045;-55
2022/07/11 01:43:12;;;;;;;2.05;1.30;;;;;;;;;;6147283;23;20064;-58
2022/07/11 01:45:38;;;;;;;3.50;1.20;;;;;;;;;;6140191;23;20600;-56
2022/07/11 01:48:05;;;;;;;1.77;1.50;;;;;;;;;;6142674;23;20048;-56
2022/07/11 01:50:32;;;;;;;2.10;1.55;;;;;;;;;;6133173;23;20026;-57
2022/07/11 01:52:58;;;;;;;2.80;1.10;;;;;;;;;;6147957;23;20013;-57
2022/07/11 01:55:26;;;;;;;6.93;2.13;;;;;;;;;;6117690;23;20017;-55
2022/07/11 01:57:54;;;;;;;1.65;1.20;;;;;;;;;;6142093;23;20020;-54
2022/07/11 02:00:20;;;;;;;3.05;1.58;;;;;;;;;;6137869;23;20013;-57
2022/07/11 02:02:47;;;;;;;3.10;1.42;;;;;;;;;;6141554;23;20013;-56
2022/07/11 02:05:13;;;;;;;3.30;1.58;;;;;;;;;;6142615;23;20226;-56
2022/07/11 02:10:28;;;;;;;1.83;1.60;;;;;;;;;;6146143;23;20069;-56
2022/07/11 02:12:56;;;;;;;2.67;1.45;;;;;;;;;;6145181;23;20018;-57
2022/07/11 02:15:23;;;;;;;2.55;1.70;;;;;;;;;;6140356;23;20014;-57
2022/07/11 02:17:49;;;;;;;3.22;1.73;;;;;;;;;;6117586;23;20088;-56
2022/07/11 02:20:16;;;;;;;1.92;1.70;;;;;;;;;;6138649;23;20068;-57
2022/07/11 02:22:42;;;;;;;3.35;1.70;;;;;;;;;;6139860;23;20080;-57
2022/07/11 02:25:09;;;;;;;2.20;1.77;;;;;;;;;;6143583;23;20433;-57
2022/07/11 02:27:36;;;;;;;4.03;1.83;;;;;;;;;;6142609;23;20013;-57
2022/07/11 02:30:04;;;;;;;4.65;2.65;;;;;;;;;;6145004;23;20092;-56
2022/07/11 02:32:31;;;;;;;3.28;1.55;;;;;;;;;;6143769;23;20022;-54
2022/07/11 02:34:57;;;;;;;3.15;1.83;;;;;;;;;;6146988;23;20013;-58
2022/07/11 02:37:23;;;;;;;2.40;1.92;;;;;;;;;;6138078;23;20017;-57
2022/07/11 02:39:50;;;;;;;4.10;1.80;;;;;;;;;;6136581;23;20068;-57
2022/07/11 02:42:18;;;;;;;1.80;1.38;;;;;;;;;;6140059;23;20023;-56
2022/07/11 02:44:44;;;;;;;2.00;1.67;;;;;;;;;;6145532;23;20029;-54
2022/07/11 02:47:13;;;;;;;3.78;2.38;;;;;;;;;;6121524;23;20024;-57
2022/07/11 02:49:40;;;;;;;2.58;2.08;;;;;;;;;;6148730;23;20092;-56
2022/07/11 02:52:08;;;;;;;2.20;1.83;;;;;;;;;;6145065;23;20045;-59
2022/07/11 02:54:34;;;;;;;1.80;1.70;;;;;;;;;;6145964;23;20017;-54
2022/07/11 02:57:02;;;;;;;3.00;1.88;;;;;;;;;;6145754;23;20317;-57
2022/07/11 02:59:29;;;;;;;2.20;1.50;;;;;;;;;;6146099;23;20049;-57
2022/07/11 03:01:55;;;;;;;2.10;1.90;;;;;;;;;;6120354;23;20017;-54
2022/07/11 03:04:23;;;;;;;2.35;1.83;;;;;;;;;;6141055;23;20045;-56
2022/07/11 03:06:50;;;;;;;1.77;1.67;;;;;;;;;;6145844;23;20305;-57
2022/07/11 03:09:16;;;;;;;3.67;1.70;;;;;;;;;;6145383;23;20044;-57
2022/07/11 03:11:42;;;;;;;5.25;1.77;;;;;;;;;;6145443;23;20024;-57
2022/07/11 03:14:10;;;;;;;2.17;1.83;;;;;;;;;;6145851;23;20017;-56
2022/07/11 03:16:36;;;;;;;5.60;2.10;;;;;;;;;;6147637;23;20017;-57
2022/07/11 03:19:03;;;;;;;2.25;2.05;;;;;;;;;;6146092;23;20014;-56
2022/07/11 03:21:31;;;;;;;2.80;2.10;;;;;;;;;;6140084;23;20089;-57
2022/07/11 03:23:57;;;;;;;2.50;1.95;;;;;;;;;;6146796;23;20170;-55
2022/07/11 03:26:24;;;;;;;3.72;2.35;;;;;;;;;;6141014;23;20020;-56
2022/07/11 03:28:51;;;;;;;2.33;1.85;;;;;;;;;;6149907;23;20025;-55
2022/07/11 03:31:18;;;;;;;2.85;1.92;;;;;;;;;;6143945;23;20017;-57
2022/07/11 03:33:45;;;;;;;4.38;1.90;;;;;;;;;;6143571;23;20020;-57
2022/07/11 03:36:11;;;;;;;3.20;2.08;;;;;;;;;;6123703;23;20088;-56
2022/07/11 03:38:39;;;;;;;3.38;1.85;;;;;;;;;;6142013;23;20013;-57
2022/07/11 03:41:06;;;;;;;2.10;1.90;;;;;;;;;;6148787;23;20045;-56
2022/07/11 03:43:32;;;;;;;1.67;1.42;;;;;;;;;;6140359;23;20104;-58
2022/07/11 03:45:59;;;;;;;2.97;1.83;;;;;;;;;;6145878;23;20546;-55
2022/07/11 03:48:25;;;;;;;2.38;1.88;;;;;;;;;;6115956;23;20014;-56
2022/07/11 03:50:52;;;;;;;2.20;2.00;;;;;;;;;;6151208;23;20048;-58
2022/07/11 03:53:18;;;;;;;3.03;1.83;;;;;;;;;;6144378;23;20084;-54
2022/07/11 03:55:46;;;;;;;2.00;1.70;;;;;;;;;;6142388;23;20020;-57
2022/07/11 03:58:13;;;;;;;2.10;1.90;;;;;;;;;;6140996;23;20013;-56
2022/07/11 04:00:39;;;;;;;2.40;2.20;;;;;;;;;;6146696;23;20049;-56
2022/07/11 04:03:06;;;;;;;3.97;2.15;;;;;;;;;;6139884;23;20022;-56
2022/07/11 04:05:32;;;;;;;2.42;2.00;;;;;;;;;;6149944;23;20112;-55
2022/07/11 04:07:59;;;;;;;4.13;2.50;;;;;;;;;;6144955;23;20017;-57
2022/07/11 04:10:25;;;;;;;5.53;2.00;;;;;;;;;;6148133;23;20029;-57
2022/07/11 04:12:53;;;;;;;1.85;1.75;;;;;;;;;;6115556;23;20013;-56
2022/07/11 04:15:20;;;;;;;2.42;1.90;;;;;;;;;;6148473;23;20014;-55
2022/07/11 04:17:46;;;;;;;2.25;1.60;;;;;;;;;;6137844;23;20010;-56
2022/07/11 04:20:13;;;;;;;2.00;1.63;;;;;;;;;;6141941;23;20052;-57
2022/07/11 04:22:39;;;;;;;3.28;1.95;;;;;;;;;;6143294;23;20017;-56
2022/07/11 04:25:06;;;;;;;4.88;2.20;;;;;;;;;;6147010;23;20025;-55
2022/07/11 04:27:33;;;;;;;2.50;2.00;;;;;;;;;;6146567;23;20049;-57
2022/07/11 04:30:01;;;;;;;3.67;2.08;;;;;;;;;;6121796;23;20056;-56
2022/07/11 04:32:27;;;;;;;3.10;2.20;;;;;;;;;;6116611;23;20024;-56
2022/07/11 04:34:53;;;;;;;3.17;2.53;;;;;;;;;;6147753;23;20017;-56
2022/07/11 04:37:20;;;;;;;4.68;2.30;;;;;;;;;;6142235;23;20400;-56
2022/07/11 04:39:47;;;;;;;4.30;2.42;;;;;;;;;;6147163;23;20080;-59
2022/07/11 04:42:14;;;;;;;4.53;2.38;;;;;;;;;;6141984;23;20471;-57
2022/07/11 04:44:42;;;;;;;3.33;1.98;;;;;;;;;;6118677;23;20051;-54
2022/07/11 04:47:10;;;;;;;4.10;2.17;;;;;;;;;;6141900;23;20036;-57
2022/07/11 04:49:37;;;;;;;2.53;2.33;;;;;;;;;;6134403;23;20023;-57
2022/07/11 04:52:04;;;;;;;4.45;2.35;;;;;;;;;;6140694;23;20021;-56
2022/07/11 04:54:30;;;;;;;3.65;2.42;;;;;;;;;;6142956;23;20017;-57
2022/07/11 04:56:57;;;;;;;4.60;2.60;;;;;;;;;;6111580;23;20041;-57
2022/07/11 04:59:24;;;;;;;2.53;1.95;;;;;;;;;;6144433;23;20024;-58
2022/07/11 05:01:50;;;;;;;4.65;2.83;;;;;;;;;;6138335;23;20018;-56
2022/07/11 05:04:19;;;;;;;2.53;1.70;;;;;;;;;;6145563;23;20018;-58
2022/07/11 05:06:45;;;;;;;2.83;2.20;;;;;;;;;;6145822;23;20020;-56
2022/07/11 05:09:13;;;;;;;5.13;2.33;;;;;;;;;;6142282;23;20335;-57
2022/07/11 05:11:40;;;;;;;2.45;1.95;;;;;;;;;;6147263;23;20337;-55
2022/07/11 05:14:06;;;;;;;2.60;2.25;;;;;;;;;;6114960;23;20018;-55
2022/07/11 05:16:33;;;;;;;3.92;2.60;;;;;;;;;;6143305;23;20017;-55
2022/07/11 05:18:59;;;;;;;4.47;2.67;;;;;;;;;;6139043;23;20026;-55
2022/07/11 05:21:27;;;;;;;4.53;2.65;;;;;;;;;;6117980;23;20018;-56
2022/07/11 05:23:54;;;;;;;4.60;2.55;;;;;;;;;;6146340;23;20017;-55
2022/07/11 05:26:21;;;;;;;4.25;2.30;;;;;;;;;;6141030;23;20013;-55
2022/07/11 05:28:47;;;;;;;2.75;2.42;;;;;;;;;;6150218;23;20014;-57
2022/07/11 05:31:14;;;;;;;3.25;2.00;;;;;;;;;;6138098;23;20013;-57
2022/07/11 05:33:40;;;;;;;2.42;2.13;;;;;;;;;;6145481;23;20014;-56
2022/07/11 05:36:07;;;;;;;3.22;2.05;;;;;;;;;;6119596;23;20021;-58
2022/07/11 05:38:36;;;;;;;3.55;2.40;;;;;;;;;;6123365;23;20071;-57
2022/07/11 05:41:02;;;;;;;5.15;2.38;;;;;;;;;;6120524;23;20077;-56
2022/07/11 05:43:29;;;;;;;2.88;2.38;;;;;;;;;;6116712;23;20040;-57
2022/07/11 05:45:56;;;;;;;2.42;2.00;;;;;;;;;;6118626;23;20098;-58
2022/07/11 05:48:23;;;;;;;4.70;2.38;;;;;;;;;;6117582;23;20024;-56
2022/07/11 05:50:49;;;;;;;4.10;1.98;;;;;;;;;;6118246;23;20025;-56
2022/07/11 05:53:16;;;;;;;2.00;1.73;;;;;;;;;;6129221;23;20069;-57
2022/07/11 05:55:44;;;;;;;6.75;2.38;;;;;;;;;;6142772;23;20014;-56
2022/07/11 05:58:10;;;;;;;3.58;2.67;;;;;;;;;;6119968;23;20456;-56
2022/07/11 06:00:37;;;;;;;4.00;1.95;;;;;;;;;;6137692;23;20017;-55
2022/07/11 06:03:03;;;;;;;3.22;2.00;;;;;;;;;;6141352;23;20095;-57
2022/07/11 06:05:30;;;;;;;2.88;2.25;;;;;;;;;;6143213;23;20522;-56
2022/07/11 06:10:40;;;;;;;2.40;1.65;;;;;;;;;;6140380;23;20029;-57
2022/07/11 06:13:09;;;;;;;2.75;2.35;;;;;;;;;;6141785;23;20050;-57
2022/07/11 06:15:36;;;;;;;7.97;2.10;;;;;;;;;;6146251;23;20542;-55
2022/07/11 06:18:02;;;;;;;3.25;1.90;;;;;;;;;;6141277;23;20100;-57
2022/07/11 06:20:29;;;;;;;4.68;2.30;;;;;;;;;;6149347;23;20037;-55
2022/07/11 06:22:55;;;;;;;2.03;1.80;;;;;;;;;;6137024;23;20404;-56
2022/07/11 06:25:22;;;;;;;1.95;1.80;;;;;;;;;;6119710;23;20017;-55
2022/07/11 06:27:48;;;;;;;3.42;1.98;;;;;;;;;;6141166;23;20013;-57
2022/07/11 06:30:16;;;;;;;3.08;2.10;;;;;;;;;;6139755;23;20049;-57
2022/07/11 06:32:43;;;;;;;2.90;1.88;;;;;;;;;;6113639;23;20032;-57
2022/07/11 06:35:09;;;;;;;4.10;2.33;;;;;;;;;;6143722;23;20041;-56
2022/07/11 06:37:36;;;;;;;4.50;1.85;;;;;;;;;;6144819;23;20018;-54
2022/07/11 06:40:08;;;;;;;2.67;2.00;;;;;;;;;;6135477;23;20044;-56
2022/07/11 06:42:34;;;;;;;2.22;1.98;;;;;;;;;;6148514;23;20017;-57
2022/07/11 06:45:01;;;;;;;2.13;1.95;;;;;;;;;;6140593;23;20534;-57
2022/07/11 06:47:30;;;;;;;2.13;1.92;;;;;;;;;;6131820;23;20013;-54
2022/07/11 06:50:00;;;;;;;;;;;;;;;;;;6073616;23;20025;-56
2022/07/11 06:52:27;;;;;;;2.55;1.60;;;;;;;;;;6093145;23;19923;-54
2022/07/11 06:54:54;;;;;;;4.63;1.38;;;;;;;;;;6043793;23;20049;-55
2022/07/11 06:57:20;;;;;;;4.53;2.03;;;;;;;;;;6141583;23;20073;-56
2022/07/11 06:59:47;;;;;;;1.80;1.63;;;;;;;;;;6138663;23;20017;-56
2022/07/11 07:02:13;;;;;;;3.38;1.65;;;;;;;;;;6143809;23;20017;-57
2022/07/11 07:04:41;;;;;;;1.67;1.48;;;;;;;;;;6138192;23;20014;-55
2022/07/11 07:07:07;;;;;;;3.70;1.60;;;;;;;;;;6140104;23;20266;-55
2022/07/11 07:09:34;;;;;;;1.20;1.10;;;;;;;;;;6141195;23;20406;-53
2022/07/11 07:12:00;;;;;;;2.22;1.50;;;;;;;;;;6139591;23;20076;-58
2022/07/11 07:14:27;;;;;;;5.13;1.95;;;;;;;;;;6138000;23;20076;-56
2022/07/11 07:16:53;;;;;;;4.32;1.70;;;;;;;;;;6141126;23;20014;-58
2022/07/11 07:19:20;;;;;;;2.25;1.27;;;;;;;;;;6111472;23;20025;-56
2022/07/11 07:21:48;;;;;;;1.98;1.55;;;;;;;;;;6145592;23;20017;-54
2022/07/11 07:24:15;;;;;;;4.75;1.40;;;;;;;;;;6141366;23;20029;-56
2022/07/11 07:26:41;;;;;;;2.50;1.40;;;;;;;;;;6147496;23;20013;-56
2022/07/11 07:29:08;;;;;;;1.42;1.20;;;;;;;;;;6131488;23;20021;-56
2022/07/11 07:31:34;;;;;;;6.20;1.42;;;;;;;;;;6145988;23;20026;-54
2022/07/11 07:34:01;;;;;;;2.20;1.48;;;;;;;;;;6142201;23;20081;-56
2022/07/11 07:36:27;;;;;;;1.55;1.45;;;;;;;;;;6148500;23;20017;-57
2022/07/11 07:38:55;;;;;;;1.55;1.45;;;;;;;;;;6141098;23;20017;-58
2022/07/11 07:41:22;;;;;;;2.05;1.60;;;;;;;;;;6114784;23;20298;-57
2022/07/11 07:43:49;;;;;;;2.22;1.27;;;;;;;;;;6139465;23;20085;-57
2022/07/11 07:46:16;;;;;;;7.28;1.55;;;;;;;;;;6136336;23;20019;-57
2022/07/11 07:48:42;;;;;;;3.58;1.20;;;;;;;;;;6110803;23;20467;-57
2022/07/11 07:51:09;;;;;;;2.15;1.50;;;;;;;;;;6141777;23;20022;-58
2022/07/11 07:53:36;;;;;;;1.92;1.40;;;;;;;;;;6149092;23;20588;-58
2022/07/11 07:56:04;;;;;;;3.20;1.10;;;;;;;;;;6138624;23;20025;-57
2022/07/11 07:58:31;;;;;;;1.98;1.20;;;;;;;;;;6144207;23;20024;-57
2022/07/11 08:03:42;;;;;;;1.90;1.50;;;;;;;;;;6134963;23;20076;-58
2022/07/11 08:06:08;;;;;;;2.00;1.58;;;;;;;;;;6132515;23;20018;-58
2022/07/11 08:08:35;;;;;;;1.85;1.33;;;;;;;;;;6146890;23;20333;-55
2022/07/11 08:11:02;;;;;;;1.73;1.30;;;;;;;;;;6136575;23;20029;-59
2022/07/11 08:13:30;;;;;;;1.63;1.30;;;;;;;;;;6140349;23;20049;-59
2022/07/11 08:15:56;;;;;;;1.30;0.90;;;;;;;;;;6137379;23;20017;-59
2022/07/11 08:18:23;;;;;;;1.40;0.88;;;;;;;;;;6110946;23;20017;-58
2022/07/11 08:20:49;;;;;;;1.77;1.45;;;;;;;;;;6144892;23;20017;-59
2022/07/11 08:23:17;;;;;;;2.67;1.10;;;;;;;;;;6110923;23;20041;-58
2022/07/11 08:25:44;;;;;;;3.20;1.65;;;;;;;;;;6126482;23;20033;-59
2022/07/11 08:28:10;;;;;;;2.17;1.23;;;;;;;;;;6140264;23;20020;-59
2022/07/11 08:30:38;;;;;;;2.53;0.93;;;;;;;;;;6138233;23;20049;-59
2022/07/11 08:33:04;;;;;;;2.72;1.27;;;;;;;;;;6139313;23;20069;-59
2022/07/11 08:35:31;;;;;;;1.15;1.05;;;;;;;;;;6145518;23;20021;-58
2022/07/11 08:37:57;;;;;;;1.77;1.10;;;;;;;;;;6136064;23;20013;-59
2022/07/11 08:40:24;;;;;;;2.63;1.40;;;;;;;;;;6113934;23;20018;-58
2022/07/11 08:42:52;;;;;;;1.30;1.20;;;;;;;;;;6142498;23;20033;-59
2022/07/11 08:45:19;;;;;;;2.05;1.25;;;;;;;;;;6133565;23;20013;-59
2022/07/11 08:47:46;;;;;;;4.70;1.17;;;;;;;;;;6146509;23;20020;-58
2022/07/11 08:50:13;;;;;;;1.20;1.10;;;;;;;;;;6109887;23;20028;-59
2022/07/11 08:52:40;;;;;;;2.28;1.40;;;;;;;;;;6139825;23;20018;-58
2022/07/11 08:55:07;;;;;;;2.53;0.90;;;;;;;;;;6135874;23;20018;-59
2022/07/11 08:57:35;;;;;;;2.20;1.15;;;;;;;;;;6141820;23;20041;-59
2022/07/11 09:00:01;;;;;;;1.90;1.10;;;;;;;;;;6139560;23;20017;-59
2022/07/11 09:02:28;;;;;;;2.78;1.30;;;;;;;;;;6143590;23;20077;-58
2022/07/11 09:04:56;;;;;;;2.03;1.23;;;;;;;;;;6134259;23;20017;-56
2022/07/11 09:07:23;;;;;;;2.45;1.23;;;;;;;;;;6140569;23;20103;-57
2022/07/11 09:09:49;;;;;;;4.05;1.27;;;;;;;;;;6139406;23;20017;-59
2022/07/11 09:12:17;;;;;;;3.30;1.52;;;;;;;;;;6136441;23;20024;-59
2022/07/11 09:14:47;;;;;;;1.13;0.90;;;;;;;;;;6148227;23;20024;-59
2022/07/11 09:17:13;;;;;;;1.98;1.35;;;;;;;;;;6142590;23;20024;-59
2022/07/11 09:19:40;;;;;;;3.30;1.48;;;;;;;;;;6143602;23;20025;-59
2022/07/11 09:27:43;;;;;;;1.52;1.00;;;;;;;;;;6135805;23;20028;-59
2022/07/11 09:30:17;;;;;;;1.88;1.38;;;;;;;;;;6146774;23;20099;-60
2022/07/11 09:32:52;;;;;;;3.92;1.52;;;;;;;;;;6144966;23;20018;-59
2022/07/11 09:35:18;;;;;;;2.90;1.33;;;;;;;;;;6138532;23;20064;-57
2022/07/11 09:37:46;;;;;;;1.58;1.20;;;;;;;;;;6147777;23;20090;-57
2022/07/11 09:40:14;;;;;;;2.85;1.10;;;;;;;;;;6138621;23;20360;-58
2022/07/11 09:42:47;;;;;;;2.25;1.10;;;;;;;;;;6144564;23;20014;-58
2022/07/11 09:45:14;;;;;;;1.20;1.02;;;;;;;;;;6135630;23;20212;-58
2022/07/11 09:47:45;;;;;;;2.17;1.10;;;;;;;;;;6140663;23;20033;-58
2022/07/11 09:50:12;;;;;;;3.90;1.20;;;;;;;;;;6140144;23;20245;-58
2022/07/11 09:52:39;;;;;;;3.13;1.38;;;;;;;;;;6111605;23;20480;-57
2022/07/11 09:55:07;;;;;;;3.40;1.25;;;;;;;;;;6142799;23;20068;-58
2022/07/11 09:57:34;;;;;;;1.27;1.08;;;;;;;;;;6138096;23;20013;-59
2022/07/11 10:00:01;;;;;;;1.63;1.33;;;;;;;;;;6146075;23;20014;-57
2022/07/11 10:02:28;;;;;;;1.40;1.30;;;;;;;;;;6134556;23;20018;-58
2022/07/11 10:04:56;;;;;;;5.65;1.30;;;;;;;;;;6143530;23;20017;-58
2022/07/11 10:07:23;;;;;;;1.63;1.08;;;;;;;;;;6118488;23;20120;-58
2022/07/11 10:09:49;;;;;;;5.88;1.27;;;;;;;;;;6143884;23;20024;-57
2022/07/11 10:12:18;;;;;;;2.15;1.30;;;;;;;;;;6131574;23;20037;-57
2022/07/11 10:14:45;;;;;;;2.53;1.55;;;;;;;;;;6140660;23;20014;-58
2022/07/11 10:17:15;;;;;;;3.75;1.10;;;;;;;;;;6140437;23;20018;-57
2022/07/11 10:19:43;;;;;;;1.95;1.15;;;;;;;;;;6136592;23;20014;-58
2022/07/11 10:22:15;;;;;;;2.85;1.17;;;;;;;;;;6106812;23;20014;-58
2022/07/11 10:24:46;;;;;;;1.55;1.10;;;;;;;;;;6142535;23;20024;-58
2022/07/11 10:27:17;;;;;;;2.45;1.10;;;;;;;;;;6135972;23;20018;-57
2022/07/11 10:29:50;;;;;;;2.17;0.93;;;;;;;;;;6133794;23;20021;-58
2022/07/11 10:32:16;;;;;;;0.93;0.85;;;;;;;;;;6142289;23;20101;-57
2022/07/11 10:34:43;;;;;;;1.38;0.90;;;;;;;;;;6145480;23;20014;-57
2022/07/11 10:37:11;;;;;;;5.50;1.27;;;;;;;;;;6145415;23;20044;-58
2022/07/11 10:39:46;;;;;;;2.33;1.20;;;;;;;;;;6146010;23;20018;-58
2022/07/11 10:42:20;;;;;;;2.70;0.95;;;;;;;;;;6136225;23;20254;-55
2022/07/11 10:44:51;;;;;;;3.28;1.05;;;;;;;;;;6147841;23;20013;-57
2022/07/11 10:47:35;;;;;;;1.35;0.90;;;;;;;;;;6140938;23;20047;-56
2022/07/11 10:50:03;;;;;;;2.25;1.20;;;;;;;;;;6152004;23;20365;-56
2022/07/11 10:52:32;;;;;;;1.20;1.10;;;;;;;;;;6112795;23;20171;-54
2022/07/11 10:55:04;;;;;;;0.70;0.60;;;;;;;;;;6116683;23;20333;-57
2022/07/11 10:57:34;;;;;;;1.83;1.10;;;;;;;;;;6139548;23;20108;-55
2022/07/11 11:00:04;;;;;;;2.75;1.30;;;;;;;;;;6148004;23;20084;-57
2022/07/11 11:02:31;;;;;;;5.40;1.42;;;;;;;;;;6136572;23;20032;-53
2022/07/11 11:04:59;;;;;;;5.18;1.10;;;;;;;;;;6152553;23;20013;-55
2022/07/11 11:07:36;;;;;;;1.25;0.88;;;;;;;;;;6140369;23;20024;-55
2022/07/11 11:10:05;;;;;;;0.80;0.77;;;;;;;;;;6109428;23;20400;-57
2022/07/11 11:12:51;;;;;;;3.35;1.15;;;;;;;;;;6107689;23;20104;-54
2022/07/11 11:15:33;;;;;;;1.58;1.20;;;;;;;;;;6130479;23;20025;-55
2022/07/11 11:18:23;;;;;;;3.15;1.15;;;;;;;;;;6148047;23;20017;-54
2022/07/11 11:21:13;;;;;;;1.20;1.10;;;;;;;;;;6147307;23;20013;-56
2022/07/11 11:23:40;;;;;;;6.22;1.38;;;;;;;;;;6143327;23;20037;-56
2022/07/11 11:26:07;;;;;;;2.30;0.90;;;;;;;;;;6143048;23;20017;-53
2022/07/11 11:28:34;;;;;;;1.15;0.90;;;;;;;;;;6137901;23;20376;-56
2022/07/11 11:31:01;;;;;;;2.65;1.15;;;;;;;;;;6138485;23;20021;-56
2022/07/11 11:33:28;;;;;;;3.55;1.20;;;;;;;;;;6141989;23;20017;-53
2022/07/11 11:36:01;;;;;;;1.17;0.98;;;;;;;;;;6143424;23;20029;-54
2022/07/11 11:38:28;;;;;;;2.03;1.10;;;;;;;;;;6139093;23;20017;-54
2022/07/11 11:40:54;;;;;;;5.03;1.60;;;;;;;;;;6141016;23;20041;-55
2022/07/11 11:43:21;;;;;;;2.65;1.27;;;;;;;;;;6136228;23;20020;-55
2022/07/11 11:45:48;;;;;;;0.82;0.82;;;;;;;;;;6141469;23;20013;-57
2022/07/11 11:48:26;;;;;;;2.53;1.98;;;;;;;;;;6143858;23;20041;-57
2022/07/11 11:50:53;;;;;;;2.30;2.10;;;;;;;;;;6140443;23;20378;-57
2022/07/11 11:53:22;;;;;;;4.82;3.78;;;;;;;;;;6142632;23;20014;-57
2022/07/11 11:55:48;;;;;;;3.63;2.83;;;;;;;;;;6130704;23;20021;-56
2022/07/11 11:58:15;;;;;;;2.45;2.25;;;;;;;;;;6150311;23;20021;-54
2022/07/11 12:00:41;;;;;;;5.30;3.15;;;;;;;;;;6135402;23;20093;-56
2022/07/11 12:03:08;;;;;;;3.35;2.97;;;;;;;;;;6141102;23;20018;-54
2022/07/11 12:05:34;;;;;;;4.72;3.78;;;;;;;;;;6139357;23;20040;-56
2022/07/11 12:08:01;;;;;;;4.10;3.38;;;;;;;;;;6136496;23;20032;-55
2022/07/11 12:10:31;;;;;;;4.07;2.92;;;;;;;;;;6144915;23;20017;-56
2022/07/11 12:12:58;;;;;;;22.63;16.95;;;;;;;;;;6142408;23;20049;-56
2022/07/11 12:16:39;;;;;;;19.80;15.38;;;;;;;;;;6137713;23;20076;-56
2022/07/11 12:18:21;;;;;;;15.90;12.05;;;;;;;;;;6140108;23;20025;-55
2022/07/11 12:20:47;;;;;;;14.13;11.55;;;;;;;;;;6121753;23;20040;-55
2022/07/11 12:23:16;;;;;;;5.45;3.88;;;;;;;;;;6140881;23;20020;-55
2022/07/11 12:25:44;;;;;;;3.03;2.70;;;;;;;;;;6148162;23;20017;-54
2022/07/11 12:28:11;;;;;;;7.90;7.07;;;;;;;;;;6131985;23;20612;-55
2022/07/11 12:30:38;;;;;;;3.47;3.15;;;;;;;;;;6142090;23;20084;-57
2022/07/11 12:33:08;;;;;;;5.53;4.40;;;;;;;;;;6125247;23;20017;-58
2022/07/11 12:35:35;;;;;;;10.07;8.60;;;;;;;;;;6139540;23;20044;-54
2022/07/11 12:38:01;;;;;;;16.45;13.88;;;;;;;;;;6143079;23;20022;-56
2022/07/11 12:40:28;;;;;;;16.55;12.65;;;;;;;;;;6123514;23;20044;-55
2022/07/11 12:42:56;;;;;;;18.90;14.68;;;;;;;;;;6143944;23;20068;-55
2022/07/11 12:45:21;;;;;;;15.40;12.82;;;;;;;;;;6136334;23;20203;-55
2022/07/11 12:47:49;;;;;;;18.17;12.57;;;;;;;;;;6140091;23;20532;-55
2022/07/11 12:50:16;;;;;;;5.57;4.63;;;;;;;;;;6108107;23;20017;-55
2022/07/11 12:52:45;;;;;;;16.98;15.07;;;;;;;;;;6136574;23;20873;-55
2022/07/11 12:55:12;;;;;;;7.13;6.43;;;;;;;;;;6129232;23;20022;-55
2022/07/11 12:57:39;;;;;;;6.03;4.22;;;;;;;;;;6146247;23;20021;-56
2022/07/11 13:00:16;;;;;;;3.65;3.25;;;;;;;;;;6121839;23;20069;-54
2022/07/11 13:02:48;;;;;;;3.90;3.03;;;;;;;;;;6139190;23;20024;-56
2022/07/11 13:05:15;;;;;;;2.78;2.35;;;;;;;;;;6099055;23;20477;-57
2022/07/11 13:10:49;;;;;;;7.57;6.75;;;;;;;;;;6137553;23;20018;-57
2022/07/11 13:13:13;;;;;;;16.05;14.45;;;;;;;;;;6137695;23;20034;-58
2022/07/11 13:15:41;;;;;;;11.90;10.68;;;;;;;;;;6141891;23;20014;-57
2022/07/11 13:18:09;;;;;;;7.00;4.93;;;;;;;;;;6140859;23;20047;-58
2022/07/11 13:20:37;;;;;;;10.40;9.32;;;;;;;;;;6140901;23;20025;-56
2022/07/11 13:23:04;;;;;;;12.18;6.28;;;;;;;;;;6131756;23;20553;-58
2022/07/11 13:25:31;;;;;;;6.05;5.45;;;;;;;;;;6144218;23;20048;-57
2022/07/11 13:27:58;;;;;;;6.50;5.90;;;;;;;;;;6145035;23;20017;-57
2022/07/11 13:30:28;;;;;;;9.88;8.88;;;;;;;;;;6141525;23;20045;-57
2022/07/11 13:32:56;;;;;;;6.78;5.85;;;;;;;;;;6130705;23;20018;-57
2022/07/11 13:35:22;;;;;;;5.18;2.90;;;;;;;;;;6147131;23;20032;-58
2022/07/11 13:37:49;;;;;;;6.18;5.55;;;;;;;;;;6120804;23;20042;-57
2022/07/11 13:40:17;;;;;;;12.90;11.60;;;;;;;;;;6149084;23;20018;-57
2022/07/11 13:42:45;;;;;;;6.85;4.97;;;;;;;;;;6129294;23;20021;-57
2022/07/11 13:45:15;;;;;;;9.15;7.07;;;;;;;;;;6108420;23;20065;-58
2022/07/11 13:47:43;;;;;;;7.88;7.15;;;;;;;;;;6093228;23;20059;-57
2022/07/11 13:50:11;;;;;;;21.48;19.25;;;;;;;;;;6101285;23;20014;-58
2022/07/11 13:52:37;;;;;;;14.88;13.35;;;;;;;;;;6114264;23;20045;-57
2022/07/11 13:55:05;;;;;;;19.00;17.10;;;;;;;;;;6112530;23;20455;-56
2022/07/11 13:57:31;;;;;;;12.48;11.25;;;;;;;;;;6111189;23;20018;-56
2022/07/11 13:59:58;;;;;;;13.32;12.07;;;;;;;;;;6118251;23;20018;-57
2022/07/11 14:02:25;;;;;;;8.40;7.53;;;;;;;;;;6104247;23;20028;-58
2022/07/11 14:04:52;;;;;;;14.25;12.27;;;;;;;;;;6114584;23;20021;-56
2022/07/11 14:07:28;;;;;;;18.10;16.17;;;;;;;;;;6073750;23;20155;-57
2022/07/11 14:10:01;;;;;;;16.88;15.25;;;;;;;;;;6135575;23;20084;-55
2022/07/11 14:12:28;;;;;;;10.90;8.50;;;;;;;;;;6140611;23;20021;-56
2022/07/11 14:14:55;;;;;;;13.90;12.52;;;;;;;;;;6139815;23;20258;-54
2022/07/11 14:17:22;;;;;;;11.02;9.88;;;;;;;;;;6145168;23;20025;-55
2022/07/11 14:19:48;;;;;;;6.93;6.22;;;;;;;;;;6138877;23;20024;-56
2022/07/11 14:22:15;;;;;;;8.77;6.38;;;;;;;;;;6147918;23;20013;-53
2022/07/11 14:24:43;;;;;;;16.65;14.90;;;;;;;;;;6131883;23;20025;-57
2022/07/11 14:27:09;;;;;;;18.10;16.35;;;;;;;;;;6149609;23;20597;-57
2022/07/11 14:29:36;;;;;;;18.08;16.33;;;;;;;;;;6129120;23;20032;-53
2022/07/11 14:32:03;;;;;;;14.75;13.20;;;;;;;;;;6145319;23;20017;-54
2022/07/11 14:34:30;;;;;;;10.63;8.95;;;;;;;;;;6138190;23;20554;-56
2022/07/11 14:36:57;;;;;;;9.55;8.25;;;;;;;;;;6143338;23;20086;-55
2022/07/11 14:39:23;;;;;;;5.05;4.55;;;;;;;;;;6115377;23;20014;-56
2022/07/11 14:41:51;;;;;;;11.23;9.52;;;;;;;;;;6143871;23;20018;-54
2022/07/11 14:44:18;;;;;;;7.80;7.10;;;;;;;;;;6117748;23;20056;-55
2022/07/11 14:46:44;;;;;;;4.97;4.47;;;;;;;;;;6148894;23;20567;-53
2022/07/11 14:49:12;;;;;;;7.78;7.00;;;;;;;;;;6139808;23;20017;-55
2022/07/11 14:51:39;;;;;;;16.48;14.70;;;;;;;;;;6146960;23;20033;-55
2022/07/11 14:54:05;;;;;;;9.32;8.48;;;;;;;;;;6143457;23;20022;-55
2022/07/11 14:56:33;;;;;;;10.95;9.95;;;;;;;;;;6143568;23;20037;-55
2022/07/11 14:59:01;;;;;;;13.65;12.30;;;;;;;;;;6137960;23;20069;-56
2022/07/11 15:01:27;;;;;;;9.50;8.57;;;;;;;;;;6141199;23;20025;-55